sensor_id;sensor_type;location;lat;lon;timestamp;noise_LAeq;noise_LA_min;noise_LA_max;noise_LA01;noise_LA95
45109;Laerm;30447;48.742;8.972;2023-07-30T00:02:25;39.75;35.94;43.63;;
45109;Laerm;30447;48.742;8.972;2023-07-30T00:04:51;39.35;35.01;45.72;;
45109;Laerm;30447;48.742;8.972;2023-07-30T00:07:17;39.49;34.69;49.53;;
45109;Laerm;30447;48.742;8.972;2023-07-30T00:09:44;38.81;32.93;45.69;;
45109;Laerm;30447;48.742;8.972;2023-07-30T00:12:10;38.23;33.44;47.68;;
45109;Laerm;30447;48.742;8.972;2023-07-30T00:14:37;39.08;32.93;42.71;;
45109;Laerm;30447;48.742;8.972;2023-07-30T00:17:03;39.43;34.31;43.44;;
45109;Laerm;30447;48.742;8.972;2023-07-30T00:19:30;39.29;33.90;46.05;;
45109;Laerm;30447;48.742;8.972;2023-07-30T00:21:56;38.75;33.44;44.83;;
45109;Laerm;30447;48.742;8.972;2023-07-30T00:24:23;38.15;32.93;41.53;;
45109;Laerm;30447;48.742;8.972;2023-07-30T00:26:49;38.05;32.93;42.22;;
45109;Laerm;30447;48.742;8.972;2023-07-30T00:29:16;38.01;33.44;41.61;;
45109;Laerm;30447;48.742;8.972;2023-07-30T00:31:42;37.94;33.44;44.35;;
45109;Laerm;30447;48.742;8.972;2023-07-30T00:34:09;38.09;33.44;40.98;;
45109;Laerm;30447;48.742;8.972;2023-07-30T00:36:35;38.56;33.90;41.75;;
45109;Laerm;30447;48.742;8.972;2023-07-30T00:39:01;38.21;33.90;41.96;;
45109;Laerm;30447;48.742;8.972;2023-07-30T00:41:28;39.42;32.93;42.85;;
45109;Laerm;30447;48.742;8.972;2023-07-30T00:43:54;39.49;33.44;41.75;;
45109;Laerm;30447;48.742;8.972;2023-07-30T00:46:21;38.66;32.93;41.38;;
45109;Laerm;30447;48.742;8.972;2023-07-30T00:48:47;38.49;32.93;43.77;;
45109;Laerm;30447;48.742;8.972;2023-07-30T00:51:16;38.24;33.44;42.53;;
45109;Laerm;30447;48.742;8.972;2023-07-30T00:53:43;38.86;35.04;42.65;;
45109;Laerm;30447;48.742;8.972;2023-07-30T00:56:09;38.61;35.36;44.38;;
45109;Laerm;30447;48.742;8.972;2023-07-30T00:58:36;42.42;36.45;46.97;;
45109;Laerm;30447;48.742;8.972;2023-07-30T01:01:02;38.59;35.36;43.94;;
45109;Laerm;30447;48.742;8.972;2023-07-30T01:03:29;39.05;35.04;50.35;;
45109;Laerm;30447;48.742;8.972;2023-07-30T01:05:56;39.18;35.04;45.33;;
45109;Laerm;30447;48.742;8.972;2023-07-30T01:08:22;39.30;33.90;43.14;;
45109;Laerm;30447;48.742;8.972;2023-07-30T01:10:50;38.51;34.69;43.68;;
45109;Laerm;30447;48.742;8.972;2023-07-30T01:13:17;38.89;34.69;45.23;;
45109;Laerm;30447;48.742;8.972;2023-07-30T01:15:45;38.63;34.69;49.84;;
45109;Laerm;30447;48.742;8.972;2023-07-30T01:18:11;38.92;34.69;42.93;;
45109;Laerm;30447;48.742;8.972;2023-07-30T01:20:38;39.14;33.90;47.38;;
45109;Laerm;30447;48.742;8.972;2023-07-30T01:23:04;38.67;33.44;44.47;;
45109;Laerm;30447;48.742;8.972;2023-07-30T01:25:36;38.29;33.90;41.61;;
45109;Laerm;30447;48.742;8.972;2023-07-30T01:28:05;38.86;34.31;57.51;;
45109;Laerm;30447;48.742;8.972;2023-07-30T01:30:38;38.34;33.90;46.50;;
45109;Laerm;30447;48.742;8.972;2023-07-30T01:33:07;38.46;34.31;44.80;;
45109;Laerm;30447;48.742;8.972;2023-07-30T01:35:37;38.45;32.93;42.65;;
45109;Laerm;30447;48.742;8.972;2023-07-30T01:38:04;38.43;34.31;41.96;;
45109;Laerm;30447;48.742;8.972;2023-07-30T01:40:32;38.40;32.93;41.82;;
45109;Laerm;30447;48.742;8.972;2023-07-30T01:42:59;38.33;34.31;41.68;;
45109;Laerm;30447;48.742;8.972;2023-07-30T01:45:26;38.04;33.44;43.14;;
45109;Laerm;30447;48.742;8.972;2023-07-30T01:47:52;39.75;32.93;46.47;;
45109;Laerm;30447;48.742;8.972;2023-07-30T01:50:19;38.89;33.44;42.22;;
45109;Laerm;30447;48.742;8.972;2023-07-30T01:52:46;38.50;34.69;43.39;;
45109;Laerm;30447;48.742;8.972;2023-07-30T01:55:12;38.46;35.04;42.16;;
45109;Laerm;30447;48.742;8.972;2023-07-30T01:57:39;37.91;33.44;45.99;;
45109;Laerm;30447;48.742;8.972;2023-07-30T02:00:05;37.75;32.93;41.68;;
45109;Laerm;30447;48.742;8.972;2023-07-30T02:02:32;37.96;32.93;41.82;;
45109;Laerm;30447;48.742;8.972;2023-07-30T02:04:58;37.48;32.93;42.03;;
45109;Laerm;30447;48.742;8.972;2023-07-30T02:07:25;37.63;33.44;41.75;;
45109;Laerm;30447;48.742;8.972;2023-07-30T02:09:51;37.95;33.44;41.46;;
45109;Laerm;30447;48.742;8.972;2023-07-30T02:12:18;38.53;33.44;44.47;;
45109;Laerm;30447;48.742;8.972;2023-07-30T02:14:44;37.68;33.44;41.38;;
45109;Laerm;30447;48.742;8.972;2023-07-30T02:17:11;37.72;32.93;40.98;;
45109;Laerm;30447;48.742;8.972;2023-07-30T02:19:37;37.59;32.93;40.33;;
45109;Laerm;30447;48.742;8.972;2023-07-30T02:22:04;37.52;33.44;41.53;;
45109;Laerm;30447;48.742;8.972;2023-07-30T02:24:30;38.14;32.93;43.24;;
45109;Laerm;30447;48.742;8.972;2023-07-30T02:26:57;38.62;33.90;48.95;;
45109;Laerm;30447;48.742;8.972;2023-07-30T02:29:23;37.95;32.93;40.98;;
45109;Laerm;30447;48.742;8.972;2023-07-30T02:31:49;38.05;32.93;42.09;;
45109;Laerm;30447;48.742;8.972;2023-07-30T02:34:16;37.98;32.93;40.80;;
45109;Laerm;30447;48.742;8.972;2023-07-30T02:36:42;38.13;33.44;41.14;;
45109;Laerm;30447;48.742;8.972;2023-07-30T02:39:09;37.88;33.44;41.53;;
45109;Laerm;30447;48.742;8.972;2023-07-30T02:41:35;38.08;32.00;42.41;;
45109;Laerm;30447;48.742;8.972;2023-07-30T02:44:02;37.70;32.93;42.03;;
45109;Laerm;30447;48.742;8.972;2023-07-30T02:46:28;37.73;32.93;40.71;;
45109;Laerm;30447;48.742;8.972;2023-07-30T02:48:55;38.13;34.31;42.59;;
45109;Laerm;30447;48.742;8.972;2023-07-30T02:51:21;37.60;33.44;40.13;;
45109;Laerm;30447;48.742;8.972;2023-07-30T02:53:52;37.83;33.44;41.75;;
45109;Laerm;30447;48.742;8.972;2023-07-30T02:56:19;38.48;34.31;41.75;;
45109;Laerm;30447;48.742;8.972;2023-07-30T02:58:46;37.87;32.35;41.22;;
45109;Laerm;30447;48.742;8.972;2023-07-30T03:01:12;37.76;32.35;41.38;;
45109;Laerm;30447;48.742;8.972;2023-07-30T03:03:38;38.23;33.90;42.22;;
45109;Laerm;30447;48.742;8.972;2023-07-30T03:06:05;37.66;32.93;40.43;;
45109;Laerm;30447;48.742;8.972;2023-07-30T03:08:31;38.58;32.35;44.35;;
45109;Laerm;30447;48.742;8.972;2023-07-30T03:10:59;37.95;33.44;40.80;;
45109;Laerm;30447;48.742;8.972;2023-07-30T03:13:26;38.99;34.31;46.45;;
45109;Laerm;30447;48.742;8.972;2023-07-30T03:15:52;38.42;34.31;43.39;;
45109;Laerm;30447;48.742;8.972;2023-07-30T03:18:19;38.03;33.44;42.59;;
45109;Laerm;30447;48.742;8.972;2023-07-30T03:20:45;38.58;35.04;42.93;;
45109;Laerm;30447;48.742;8.972;2023-07-30T03:23:12;39.51;36.20;43.68;;
45109;Laerm;30447;48.742;8.972;2023-07-30T03:25:38;42.30;37.88;45.60;;
45109;Laerm;30447;48.742;8.972;2023-07-30T03:28:05;40.90;36.45;46.15;;
45109;Laerm;30447;48.742;8.972;2023-07-30T03:30:32;38.62;33.90;47.28;;
45109;Laerm;30447;48.742;8.972;2023-07-30T03:32:58;38.32;34.69;43.24;;
45109;Laerm;30447;48.742;8.972;2023-07-30T03:35:25;38.83;34.69;44.69;;
45109;Laerm;30447;48.742;8.972;2023-07-30T03:37:51;43.30;35.66;51.36;;
45109;Laerm;30447;48.742;8.972;2023-07-30T03:40:17;46.84;42.22;52.02;;
45109;Laerm;30447;48.742;8.972;2023-07-30T03:42:44;41.71;38.67;46.59;;
45109;Laerm;30447;48.742;8.972;2023-07-30T03:45:10;40.01;35.86;50.36;;
45109;Laerm;30447;48.742;8.972;2023-07-30T03:47:37;38.99;35.66;43.90;;
45109;Laerm;30447;48.742;8.972;2023-07-30T03:50:03;39.20;35.66;62.96;;
45109;Laerm;30447;48.742;8.972;2023-07-30T03:52:30;39.49;35.04;44.11;;
45109;Laerm;30447;48.742;8.972;2023-07-30T03:54:56;38.51;34.31;47.34;;
45109;Laerm;30447;48.742;8.972;2023-07-30T03:57:23;39.49;35.66;52.05;;
45109;Laerm;30447;48.742;8.972;2023-07-30T03:59:49;38.54;35.04;45.67;;
45109;Laerm;30447;48.742;8.972;2023-07-30T04:02:16;38.97;34.69;50.42;;
45109;Laerm;30447;48.742;8.972;2023-07-30T04:04:43;38.61;32.93;49.75;;
45109;Laerm;30447;48.742;8.972;2023-07-30T04:07:14;38.40;33.90;51.77;;
45109;Laerm;30447;48.742;8.972;2023-07-30T04:09:41;38.54;34.31;50.37;;
45109;Laerm;30447;48.742;8.972;2023-07-30T04:12:08;38.43;33.90;46.57;;
45109;Laerm;30447;48.742;8.972;2023-07-30T04:14:34;41.54;35.04;51.78;;
45109;Laerm;30447;48.742;8.972;2023-07-30T04:17:00;39.79;34.69;50.10;;
45109;Laerm;30447;48.742;8.972;2023-07-30T04:19:27;39.33;33.44;54.69;;
45109;Laerm;30447;48.742;8.972;2023-07-30T04:21:53;39.47;33.44;51.22;;
45109;Laerm;30447;48.742;8.972;2023-07-30T04:24:20;38.50;34.31;49.98;;
45109;Laerm;30447;48.742;8.972;2023-07-30T04:26:46;40.18;34.69;52.28;;
45109;Laerm;30447;48.742;8.972;2023-07-30T04:29:13;38.94;35.04;49.50;;
45109;Laerm;30447;48.742;8.972;2023-07-30T04:31:40;39.03;35.04;42.98;;
45109;Laerm;30447;48.742;8.972;2023-07-30T04:34:06;39.14;35.36;53.37;;
45109;Laerm;30447;48.742;8.972;2023-07-30T04:36:33;38.72;33.44;46.84;;
45109;Laerm;30447;48.742;8.972;2023-07-30T04:38:59;39.20;35.04;51.44;;
45109;Laerm;30447;48.742;8.972;2023-07-30T04:41:26;42.73;35.04;56.55;;
45109;Laerm;30447;48.742;8.972;2023-07-30T04:43:52;39.43;35.04;51.26;;
45109;Laerm;30447;48.742;8.972;2023-07-30T04:46:18;39.47;35.04;47.14;;
45109;Laerm;30447;48.742;8.972;2023-07-30T04:48:45;39.57;33.90;48.39;;
45109;Laerm;30447;48.742;8.972;2023-07-30T04:51:11;39.03;34.69;47.57;;
45109;Laerm;30447;48.742;8.972;2023-07-30T04:53:38;39.53;35.04;55.98;;
45109;Laerm;30447;48.742;8.972;2023-07-30T04:56:04;48.22;34.31;62.50;;
45109;Laerm;30447;48.742;8.972;2023-07-30T04:58:31;42.54;33.90;61.26;;
45109;Laerm;30447;48.742;8.972;2023-07-30T05:00:57;38.73;33.44;49.90;;
45109;Laerm;30447;48.742;8.972;2023-07-30T05:03:23;38.47;33.90;51.40;;
45109;Laerm;30447;48.742;8.972;2023-07-30T05:05:50;37.93;33.90;52.98;;
45109;Laerm;30447;48.742;8.972;2023-07-30T05:08:16;39.63;35.94;49.69;;
45109;Laerm;30447;48.742;8.972;2023-07-30T05:10:43;38.91;35.04;48.39;;
45109;Laerm;30447;48.742;8.972;2023-07-30T05:13:09;38.38;34.31;48.25;;
45109;Laerm;30447;48.742;8.972;2023-07-30T05:15:35;38.96;34.69;50.64;;
45109;Laerm;30447;48.742;8.972;2023-07-30T05:18:02;38.71;33.90;51.43;;
45109;Laerm;30447;48.742;8.972;2023-07-30T05:20:28;39.75;35.04;49.67;;
45109;Laerm;30447;48.742;8.972;2023-07-30T05:22:55;38.95;34.31;52.13;;
45109;Laerm;30447;48.742;8.972;2023-07-30T05:25:21;39.75;35.04;50.03;;
45109;Laerm;30447;48.742;8.972;2023-07-30T05:27:49;45.87;35.04;57.47;;
45109;Laerm;30447;48.742;8.972;2023-07-30T05:30:15;38.63;33.90;46.13;;
45109;Laerm;30447;48.742;8.972;2023-07-30T05:32:42;41.92;34.31;56.84;;
45109;Laerm;30447;48.742;8.972;2023-07-30T05:35:08;41.47;36.69;49.49;;
45109;Laerm;30447;48.742;8.972;2023-07-30T05:37:34;40.41;36.69;49.44;;
45109;Laerm;30447;48.742;8.972;2023-07-30T05:40:01;40.67;36.69;49.10;;
45109;Laerm;30447;48.742;8.972;2023-07-30T05:42:29;38.65;34.69;46.82;;
45109;Laerm;30447;48.742;8.972;2023-07-30T05:44:55;41.55;33.44;58.69;;
45109;Laerm;30447;48.742;8.972;2023-07-30T05:47:21;44.27;33.44;62.70;;
45109;Laerm;30447;48.742;8.972;2023-07-30T05:49:48;44.98;35.36;65.20;;
45109;Laerm;30447;48.742;8.972;2023-07-30T05:52:14;43.45;34.69;62.86;;
45109;Laerm;30447;48.742;8.972;2023-07-30T05:54:41;39.27;35.01;49.47;;
45109;Laerm;30447;48.742;8.972;2023-07-30T05:57:07;39.68;33.90;55.44;;
45109;Laerm;30447;48.742;8.972;2023-07-30T05:59:34;38.65;32.93;55.93;;
45109;Laerm;30447;48.742;8.972;2023-07-30T06:02:03;38.55;33.44;49.16;;
45109;Laerm;30447;48.742;8.972;2023-07-30T06:04:30;40.81;34.69;46.76;;
45109;Laerm;30447;48.742;8.972;2023-07-30T06:06:59;40.90;34.31;47.70;;
45109;Laerm;30447;48.742;8.972;2023-07-30T06:09:26;39.12;33.90;50.92;;
45109;Laerm;30447;48.742;8.972;2023-07-30T06:11:52;39.36;34.69;52.75;;
45109;Laerm;30447;48.742;8.972;2023-07-30T06:14:19;39.36;34.31;52.81;;
45109;Laerm;30447;48.742;8.972;2023-07-30T06:16:45;39.04;33.90;49.18;;
45109;Laerm;30447;48.742;8.972;2023-07-30T06:19:12;39.28;33.44;51.31;;
45109;Laerm;30447;48.742;8.972;2023-07-30T06:21:38;39.11;34.31;45.91;;
45109;Laerm;30447;48.742;8.972;2023-07-30T06:24:05;39.92;34.31;51.44;;
45109;Laerm;30447;48.742;8.972;2023-07-30T06:26:31;38.88;34.31;51.42;;
45109;Laerm;30447;48.742;8.972;2023-07-30T06:28:58;38.74;33.44;49.44;;
45109;Laerm;30447;48.742;8.972;2023-07-30T06:31:25;40.21;34.31;57.17;;
45109;Laerm;30447;48.742;8.972;2023-07-30T06:33:51;40.29;33.90;62.48;;
45109;Laerm;30447;48.742;8.972;2023-07-30T06:36:18;38.28;32.93;48.05;;
45109;Laerm;30447;48.742;8.972;2023-07-30T06:38:44;38.19;33.09;46.23;;
45109;Laerm;30447;48.742;8.972;2023-07-30T06:41:11;38.56;33.90;47.76;;
45109;Laerm;30447;48.742;8.972;2023-07-30T06:43:37;38.45;34.31;47.00;;
45109;Laerm;30447;48.742;8.972;2023-07-30T06:46:03;38.58;34.69;43.68;;
45109;Laerm;30447;48.742;8.972;2023-07-30T06:48:30;38.75;33.44;46.82;;
45109;Laerm;30447;48.742;8.972;2023-07-30T06:50:57;40.04;33.44;50.68;;
45109;Laerm;30447;48.742;8.972;2023-07-30T06:53:23;38.83;33.90;50.53;;
45109;Laerm;30447;48.742;8.972;2023-07-30T06:55:50;40.18;35.36;53.64;;
45109;Laerm;30447;48.742;8.972;2023-07-30T06:58:16;40.92;36.45;62.71;;
45109;Laerm;30447;48.742;8.972;2023-07-30T07:00:42;40.68;35.94;55.49;;
45109;Laerm;30447;48.742;8.972;2023-07-30T07:03:09;38.72;35.04;52.12;;
45109;Laerm;30447;48.742;8.972;2023-07-30T07:05:35;39.34;35.04;52.33;;
45109;Laerm;30447;48.742;8.972;2023-07-30T07:08:02;39.72;35.36;52.85;;
45109;Laerm;30447;48.742;8.972;2023-07-30T07:10:28;40.09;35.94;52.30;;
45109;Laerm;30447;48.742;8.972;2023-07-30T07:12:55;40.35;35.66;59.43;;
45109;Laerm;30447;48.742;8.972;2023-07-30T07:15:21;43.38;38.81;53.41;;
45109;Laerm;30447;48.742;8.972;2023-07-30T07:17:48;49.98;44.04;55.81;;
45109;Laerm;30447;48.742;8.972;2023-07-30T07:20:14;44.01;41.06;52.19;;
45109;Laerm;30447;48.742;8.972;2023-07-30T07:22:40;42.34;39.34;51.27;;
45109;Laerm;30447;48.742;8.972;2023-07-30T07:25:07;41.39;38.05;56.31;;
45109;Laerm;30447;48.742;8.972;2023-07-30T07:27:34;40.72;37.70;55.25;;
45109;Laerm;30447;48.742;8.972;2023-07-30T07:30:00;40.29;37.32;50.56;;
45109;Laerm;30447;48.742;8.972;2023-07-30T07:32:27;42.80;37.70;51.96;;
45109;Laerm;30447;48.742;8.972;2023-07-30T07:34:54;41.15;36.69;51.32;;
45109;Laerm;30447;48.742;8.972;2023-07-30T07:37:20;41.00;36.20;51.83;;
45109;Laerm;30447;48.742;8.972;2023-07-30T07:39:47;40.17;36.45;48.25;;
45109;Laerm;30447;48.742;8.972;2023-07-30T07:42:13;40.84;35.66;55.93;;
45109;Laerm;30447;48.742;8.972;2023-07-30T07:44:40;40.68;36.45;55.76;;
45109;Laerm;30447;48.742;8.972;2023-07-30T07:47:06;41.41;36.91;55.74;;
45109;Laerm;30447;48.742;8.972;2023-07-30T07:49:33;45.01;36.69;58.20;;
45109;Laerm;30447;48.742;8.972;2023-07-30T07:51:59;41.51;37.52;47.81;;
45109;Laerm;30447;48.742;8.972;2023-07-30T07:54:26;42.63;38.37;53.33;;
45109;Laerm;30447;48.742;8.972;2023-07-30T07:56:52;43.02;38.52;55.81;;
45109;Laerm;30447;48.742;8.972;2023-07-30T07:59:18;41.84;38.37;55.30;;
45109;Laerm;30447;48.742;8.972;2023-07-30T08:01:45;40.86;36.45;49.43;;
45109;Laerm;30447;48.742;8.972;2023-07-30T08:04:11;39.91;35.36;49.87;;
45109;Laerm;30447;48.742;8.972;2023-07-30T08:06:38;39.91;35.04;51.00;;
45109;Laerm;30447;48.742;8.972;2023-07-30T08:09:04;40.88;36.45;54.93;;
45109;Laerm;30447;48.742;8.972;2023-07-30T08:11:31;41.06;36.20;56.05;;
45109;Laerm;30447;48.742;8.972;2023-07-30T08:13:57;40.21;35.66;56.19;;
45109;Laerm;30447;48.742;8.972;2023-07-30T08:16:24;39.61;35.66;50.89;;
45109;Laerm;30447;48.742;8.972;2023-07-30T08:18:51;39.66;35.94;52.90;;
45109;Laerm;30447;48.742;8.972;2023-07-30T08:21:18;40.00;36.20;57.68;;
45109;Laerm;30447;48.742;8.972;2023-07-30T08:23:46;40.01;35.66;51.38;;
45109;Laerm;30447;48.742;8.972;2023-07-30T08:26:13;39.33;35.04;52.51;;
45109;Laerm;30447;48.742;8.972;2023-07-30T08:28:39;40.60;35.36;55.89;;
45109;Laerm;30447;48.742;8.972;2023-07-30T08:31:06;39.94;35.04;58.22;;
45109;Laerm;30447;48.742;8.972;2023-07-30T08:33:32;39.76;35.94;50.73;;
45109;Laerm;30447;48.742;8.972;2023-07-30T08:35:59;40.12;36.20;48.73;;
45109;Laerm;30447;48.742;8.972;2023-07-30T08:38:26;39.16;35.66;52.62;;
45109;Laerm;30447;48.742;8.972;2023-07-30T08:40:52;39.41;35.94;46.69;;
45109;Laerm;30447;48.742;8.972;2023-07-30T08:43:18;40.49;35.36;60.46;;
45109;Laerm;30447;48.742;8.972;2023-07-30T08:45:45;39.72;35.04;47.63;;
45109;Laerm;30447;48.742;8.972;2023-07-30T08:48:12;43.91;37.52;60.24;;
45109;Laerm;30447;48.742;8.972;2023-07-30T08:50:40;41.41;35.66;68.58;;
45109;Laerm;30447;48.742;8.972;2023-07-30T08:53:07;42.14;35.94;66.39;;
45109;Laerm;30447;48.742;8.972;2023-07-30T08:55:34;42.61;37.88;53.65;;
45109;Laerm;30447;48.742;8.972;2023-07-30T08:58:03;41.51;36.10;66.94;;
45109;Laerm;30447;48.742;8.972;2023-07-30T09:00:36;41.18;36.20;60.12;;
45109;Laerm;30447;48.742;8.972;2023-07-30T09:03:06;40.14;36.45;51.71;;
45109;Laerm;30447;48.742;8.972;2023-07-30T09:05:33;39.37;35.94;45.86;;
45109;Laerm;30447;48.742;8.972;2023-07-30T09:07:59;40.57;35.36;65.91;;
45109;Laerm;30447;48.742;8.972;2023-07-30T09:10:26;41.84;36.20;61.22;;
45109;Laerm;30447;48.742;8.972;2023-07-30T09:12:55;41.48;35.94;56.89;;
45109;Laerm;30447;48.742;8.972;2023-07-30T09:15:36;41.59;37.32;56.58;;
45109;Laerm;30447;48.742;8.972;2023-07-30T09:18:07;40.09;36.20;55.51;;
45109;Laerm;30447;48.742;8.972;2023-07-30T09:20:39;39.59;36.20;52.30;;
45109;Laerm;30447;48.742;8.972;2023-07-30T09:23:06;40.80;36.45;54.08;;
45109;Laerm;30447;48.742;8.972;2023-07-30T09:25:37;42.54;36.69;60.29;;
45109;Laerm;30447;48.742;8.972;2023-07-30T09:28:05;40.85;37.12;51.24;;
45109;Laerm;30447;48.742;8.972;2023-07-30T09:30:32;40.29;36.91;53.39;;
45109;Laerm;30447;48.742;8.972;2023-07-30T09:32:59;41.35;37.52;52.19;;
45109;Laerm;30447;48.742;8.972;2023-07-30T09:35:26;41.84;36.69;56.35;;
45109;Laerm;30447;48.742;8.972;2023-07-30T09:38:01;43.48;35.94;57.52;;
45109;Laerm;30447;48.742;8.972;2023-07-30T09:40:36;39.55;35.36;49.74;;
45109;Laerm;30447;48.742;8.972;2023-07-30T09:43:04;41.13;36.45;53.73;;
45109;Laerm;30447;48.742;8.972;2023-07-30T09:45:34;40.82;36.69;63.45;;
45109;Laerm;30447;48.742;8.972;2023-07-30T09:48:04;40.76;35.94;52.15;;
45109;Laerm;30447;48.742;8.972;2023-07-30T09:50:33;40.27;36.20;59.69;;
45109;Laerm;30447;48.742;8.972;2023-07-30T09:53:01;40.56;35.04;46.57;;
45109;Laerm;30447;48.742;8.972;2023-07-30T09:55:28;39.36;35.36;48.71;;
45109;Laerm;30447;48.742;8.972;2023-07-30T09:57:54;40.31;36.20;55.15;;
45109;Laerm;30447;48.742;8.972;2023-07-30T10:00:21;40.36;36.45;56.68;;
45109;Laerm;30447;48.742;8.972;2023-07-30T10:02:49;42.64;38.52;52.29;;
45109;Laerm;30447;48.742;8.972;2023-07-30T10:05:18;41.98;37.88;53.82;;
45109;Laerm;30447;48.742;8.972;2023-07-30T10:08:00;40.11;36.20;51.75;;
45109;Laerm;30447;48.742;8.972;2023-07-30T10:10:29;39.20;35.04;50.01;;
45109;Laerm;30447;48.742;8.972;2023-07-30T10:13:01;40.03;35.66;55.51;;
45109;Laerm;30447;48.742;8.972;2023-07-30T10:15:34;40.87;36.69;66.04;;
45109;Laerm;30447;48.742;8.972;2023-07-30T10:18:01;39.76;35.94;51.36;;
45109;Laerm;30447;48.742;8.972;2023-07-30T10:20:28;39.10;35.36;50.96;;
45109;Laerm;30447;48.742;8.972;2023-07-30T10:23:00;39.89;35.94;44.76;;
45109;Laerm;30447;48.742;8.972;2023-07-30T10:25:41;40.77;36.69;49.10;;
45109;Laerm;30447;48.742;8.972;2023-07-30T10:28:08;41.17;37.32;54.07;;
45109;Laerm;30447;48.742;8.972;2023-07-30T10:30:35;41.08;37.52;55.52;;
45109;Laerm;30447;48.742;8.972;2023-07-30T10:33:03;40.78;36.69;54.31;;
45109;Laerm;30447;48.742;8.972;2023-07-30T10:35:43;41.17;37.12;56.40;;
45109;Laerm;30447;48.742;8.972;2023-07-30T10:40:57;40.97;37.12;45.51;;
45109;Laerm;30447;48.742;8.972;2023-07-30T10:43:36;41.86;38.05;55.35;;
45109;Laerm;30447;48.742;8.972;2023-07-30T10:46:03;44.33;38.95;57.28;;
45109;Laerm;30447;48.742;8.972;2023-07-30T10:48:37;44.18;38.81;62.08;;
45109;Laerm;30447;48.742;8.972;2023-07-30T10:51:06;41.69;37.52;58.33;;
45109;Laerm;30447;48.742;8.972;2023-07-30T10:53:33;42.22;37.12;53.76;;
45109;Laerm;30447;48.742;8.972;2023-07-30T10:56:04;44.84;38.81;65.08;;
45109;Laerm;30447;48.742;8.972;2023-07-30T10:58:32;42.59;38.52;55.09;;
45109;Laerm;30447;48.742;8.972;2023-07-30T11:00:59;43.39;38.52;52.51;;
45109;Laerm;30447;48.742;8.972;2023-07-30T11:03:27;41.52;38.05;50.82;;
45109;Laerm;30447;48.742;8.972;2023-07-30T11:05:55;41.14;37.70;57.58;;
45109;Laerm;30447;48.742;8.972;2023-07-30T11:08:35;42.20;38.52;52.48;;
45109;Laerm;30447;48.742;8.972;2023-07-30T11:11:04;42.09;38.05;59.29;;
45109;Laerm;30447;48.742;8.972;2023-07-30T11:13:41;42.54;38.37;59.98;;
45109;Laerm;30447;48.742;8.972;2023-07-30T11:16:09;43.60;38.52;60.81;;
45109;Laerm;30447;48.742;8.972;2023-07-30T11:18:37;41.71;37.88;50.69;;
45109;Laerm;30447;48.742;8.972;2023-07-30T11:21:17;44.51;38.05;64.14;;
45109;Laerm;30447;48.742;8.972;2023-07-30T11:23:45;43.35;39.46;60.30;;
45109;Laerm;30447;48.742;8.972;2023-07-30T11:26:17;42.85;38.37;59.93;;
45109;Laerm;30447;48.742;8.972;2023-07-30T11:28:44;40.71;37.70;47.90;;
45109;Laerm;30447;48.742;8.972;2023-07-30T11:31:13;41.63;37.32;48.70;;
45109;Laerm;30447;48.742;8.972;2023-07-30T11:33:43;41.85;38.37;50.60;;
45109;Laerm;30447;48.742;8.972;2023-07-30T11:36:21;40.57;36.91;51.91;;
45109;Laerm;30447;48.742;8.972;2023-07-30T11:38:51;40.36;36.69;49.92;;
45109;Laerm;30447;48.742;8.972;2023-07-30T11:41:19;40.60;37.32;48.31;;
45109;Laerm;30447;48.742;8.972;2023-07-30T11:43:48;41.17;38.21;52.53;;
45109;Laerm;30447;48.742;8.972;2023-07-30T11:46:16;42.65;38.95;61.80;;
45109;Laerm;30447;48.742;8.972;2023-07-30T11:48:45;42.32;37.88;63.78;;
45109;Laerm;30447;48.742;8.972;2023-07-30T11:51:20;41.10;37.70;49.32;;
45109;Laerm;30447;48.742;8.972;2023-07-30T11:53:52;41.11;37.70;54.90;;
45109;Laerm;30447;48.742;8.972;2023-07-30T11:56:26;46.88;39.34;61.69;;
45109;Laerm;30447;48.742;8.972;2023-07-30T11:59:02;42.92;38.81;53.89;;
45109;Laerm;30447;48.742;8.972;2023-07-30T12:01:32;40.95;37.52;44.73;;
45109;Laerm;30447;48.742;8.972;2023-07-30T12:04:03;41.64;38.21;53.16;;
45109;Laerm;30447;48.742;8.972;2023-07-30T12:06:43;41.92;38.02;54.01;;
45109;Laerm;30447;48.742;8.972;2023-07-30T12:09:21;40.88;37.12;49.38;;
45109;Laerm;30447;48.742;8.972;2023-07-30T12:12:00;42.64;37.52;53.81;;
45109;Laerm;30447;48.742;8.972;2023-07-30T12:17:15;44.04;38.81;65.84;;
45109;Laerm;30447;48.742;8.972;2023-07-30T12:19:42;45.93;37.88;65.76;;
45109;Laerm;30447;48.742;8.972;2023-07-30T12:22:08;44.67;40.23;62.07;;
45109;Laerm;30447;48.742;8.972;2023-07-30T12:24:35;42.56;37.52;54.88;;
45109;Laerm;30447;48.742;8.972;2023-07-30T12:27:01;41.63;37.52;48.98;;
45109;Laerm;30447;48.742;8.972;2023-07-30T12:29:28;41.74;38.37;49.45;;
45109;Laerm;30447;48.742;8.972;2023-07-30T12:31:54;43.19;39.34;55.27;;
45109;Laerm;30447;48.742;8.972;2023-07-30T12:34:23;43.16;39.46;56.06;;
45109;Laerm;30447;48.742;8.972;2023-07-30T12:36:49;43.83;40.13;58.38;;
45109;Laerm;30447;48.742;8.972;2023-07-30T12:39:16;42.25;38.52;49.25;;
45109;Laerm;30447;48.742;8.972;2023-07-30T12:41:42;43.75;39.58;52.35;;
45109;Laerm;30447;48.742;8.972;2023-07-30T12:44:09;42.13;38.21;49.62;;
45109;Laerm;30447;48.742;8.972;2023-07-30T12:46:35;41.64;37.88;55.51;;
45109;Laerm;30447;48.742;8.972;2023-07-30T12:49:02;42.22;38.52;53.67;;
45109;Laerm;30447;48.742;8.972;2023-07-30T12:51:31;42.10;38.21;52.50;;
45109;Laerm;30447;48.742;8.972;2023-07-30T12:53:57;41.95;37.70;55.42;;
45109;Laerm;30447;48.742;8.972;2023-07-30T12:56:23;41.11;37.32;52.18;;
45109;Laerm;30447;48.742;8.972;2023-07-30T12:58:50;41.28;37.70;52.64;;
45109;Laerm;30447;48.742;8.972;2023-07-30T13:01:16;40.87;37.32;56.50;;
45109;Laerm;30447;48.742;8.972;2023-07-30T13:03:43;42.74;38.37;54.56;;
45109;Laerm;30447;48.742;8.972;2023-07-30T13:06:12;41.15;37.70;46.87;;
45109;Laerm;30447;48.742;8.972;2023-07-30T13:08:39;42.06;37.32;60.16;;
45109;Laerm;30447;48.742;8.972;2023-07-30T13:11:06;41.66;37.32;55.14;;
45109;Laerm;30447;48.742;8.972;2023-07-30T13:13:33;44.18;38.37;62.43;;
45109;Laerm;30447;48.742;8.972;2023-07-30T13:15:59;42.55;38.95;59.57;;
45109;Laerm;30447;48.742;8.972;2023-07-30T13:18:29;42.15;38.81;57.60;;
45109;Laerm;30447;48.742;8.972;2023-07-30T13:20:55;44.03;39.21;60.95;;
45109;Laerm;30447;48.742;8.972;2023-07-30T13:23:22;44.18;40.13;59.85;;
45109;Laerm;30447;48.742;8.972;2023-07-30T13:25:51;42.86;37.52;59.02;;
45109;Laerm;30447;48.742;8.972;2023-07-30T13:28:17;43.38;38.67;57.36;;
45109;Laerm;30447;48.742;8.972;2023-07-30T13:30:44;43.44;39.21;58.12;;
45109;Laerm;30447;48.742;8.972;2023-07-30T13:33:10;43.39;38.95;56.36;;
45109;Laerm;30447;48.742;8.972;2023-07-30T13:35:37;42.27;38.21;50.92;;
45109;Laerm;30447;48.742;8.972;2023-07-30T13:38:03;41.53;38.21;49.21;;
45109;Laerm;30447;48.742;8.972;2023-07-30T13:40:30;41.76;38.37;55.02;;
45109;Laerm;30447;48.742;8.972;2023-07-30T13:42:56;40.79;38.21;46.35;;
45109;Laerm;30447;48.742;8.972;2023-07-30T13:45:23;40.32;36.20;50.09;;
45109;Laerm;30447;48.742;8.972;2023-07-30T13:47:49;42.75;37.88;55.37;;
45109;Laerm;30447;48.742;8.972;2023-07-30T13:50:16;42.20;38.52;58.50;;
45109;Laerm;30447;48.742;8.972;2023-07-30T13:52:43;43.33;38.95;63.05;;